createdAt,value
2017-08-31T00:01:08.499Z,97.70
2017-08-31T00:03:37.484Z,97.80
2017-08-31T00:06:06.456Z,97.70
2017-08-31T00:08:35.445Z,97.60
2017-08-31T00:11:04.408Z,97.80
2017-08-31T00:13:33.386Z,98.00
2017-08-31T00:16:02.336Z,98.10
2017-08-31T00:18:31.337Z,98.00
2017-08-31T00:21:00.381Z,98.20
2017-08-31T00:23:29.362Z,97.90
2017-08-31T00:25:58.324Z,98.00
2017-08-31T00:28:27.361Z,98.10
2017-08-31T00:30:56.355Z,98.00
2017-08-31T00:33:25.333Z,98.00
2017-08-31T00:35:55.379Z,98.00
2017-08-31T00:38:24.385Z,98.00
2017-08-31T00:40:53.391Z,98.00
2017-08-31T00:43:22.357Z,97.90
2017-08-31T00:45:51.369Z,98.30
2017-08-31T00:48:20.340Z,98.00
2017-08-31T00:50:49.353Z,98.00
2017-08-31T00:53:18.323Z,97.80
2017-08-31T00:55:47.325Z,97.90
2017-08-31T00:58:16.829Z,97.70
2017-08-31T01:00:45.806Z,97.80
2017-08-31T01:03:14.876Z,98.20
2017-08-31T01:05:44.671Z,97.70
2017-08-31T01:08:14.713Z,97.80
2017-08-31T01:10:43.711Z,97.80
2017-08-31T01:13:12.662Z,97.70
2017-08-31T01:15:42.840Z,97.70
2017-08-31T01:18:11.963Z,97.60
2017-08-31T01:20:41.013Z,97.70
2017-08-31T01:23:10.125Z,97.80
2017-08-31T01:25:39.105Z,98.00
2017-08-31T01:28:08.091Z,98.10
2017-08-31T01:30:37.056Z,98.50
2017-08-31T01:33:06.047Z,98.40
2017-08-31T01:35:35.041Z,98.30
2017-08-31T01:38:04.016Z,98.30
2017-08-31T01:40:33.008Z,98.30
2017-08-31T01:43:02.003Z,98.40
2017-08-31T01:45:31.002Z,98.10
2017-08-31T01:47:59.958Z,98.90
2017-08-31T01:50:28.936Z,98.80
2017-08-31T01:52:57.893Z,99.10
2017-08-31T01:55:26.896Z,98.90
2017-08-31T01:57:55.855Z,98.90
2017-08-31T02:00:24.843Z,99.00
2017-08-31T02:02:53.791Z,98.60
2017-08-31T02:05:22.787Z,98.40
2017-08-31T02:07:51.745Z,98.10
2017-08-31T02:10:21.500Z,97.40
2017-08-31T02:12:50.514Z,97.40
2017-08-31T02:15:19.519Z,97.50
2017-08-31T02:17:48.484Z,97.50
2017-08-31T02:20:17.517Z,97.60
2017-08-31T02:22:46.482Z,97.90
2017-08-31T02:25:15.470Z,98.10
2017-08-31T02:27:44.430Z,97.70
2017-08-31T02:30:13.504Z,98.00
2017-08-31T02:32:42.581Z,97.70
2017-08-31T02:35:11.596Z,97.40
2017-08-31T02:37:40.538Z,97.70
2017-08-31T02:40:09.502Z,97.50
2017-08-31T02:42:38.478Z,97.10
2017-08-31T02:45:07.467Z,97.20
2017-08-31T02:47:36.423Z,97.20
2017-08-31T02:50:05.406Z,97.50
2017-08-31T02:52:35.128Z,97.10
2017-08-31T02:55:05.090Z,97.40
2017-08-31T02:57:34.072Z,97.40
2017-08-31T03:00:03.047Z,97.10
2017-08-31T03:02:32.008Z,97.20
2017-08-31T03:05:00.991Z,97.10
2017-08-31T03:07:29.938Z,96.80
2017-08-31T03:09:58.971Z,96.80
2017-08-31T03:12:27.927Z,96.50
2017-08-31T03:14:56.930Z,96.70
2017-08-31T03:17:25.868Z,96.50
2017-08-31T03:19:55.006Z,96.60
2017-08-31T03:22:24.021Z,97.50
2017-08-31T03:24:52.978Z,96.80
2017-08-31T03:27:22.721Z,96.80
2017-08-31T03:29:51.807Z,96.70
2017-08-31T03:32:20.785Z,96.60
2017-08-31T03:34:49.742Z,96.40
2017-08-31T03:37:18.746Z,96.40
2017-08-31T03:39:48.491Z,96.50
2017-08-31T03:42:17.458Z,96.40
2017-08-31T03:44:46.447Z,96.00
2017-08-31T03:47:15.382Z,96.00
2017-08-31T03:49:44.386Z,96.20
2017-08-31T03:52:13.330Z,95.90
2017-08-31T03:54:42.290Z,95.90
2017-08-31T03:57:11.258Z,96.00
2017-08-31T03:59:40.244Z,96.00
2017-08-31T04:02:09.195Z,95.90
2017-08-31T04:04:38.930Z,96.20
2017-08-31T04:07:07.877Z,96.20
2017-08-31T04:09:37.219Z,96.20
2017-08-31T04:12:06.161Z,96.20
2017-08-31T04:14:35.138Z,96.50
2017-08-31T04:17:04.108Z,96.70
2017-08-31T04:19:33.188Z,97.10
2017-08-31T04:22:02.128Z,96.60
2017-08-31T04:24:31.104Z,96.00
2017-08-31T04:27:00.062Z,96.10
2017-08-31T04:29:29.040Z,96.00
2017-08-31T04:31:58.014Z,96.30
2017-08-31T04:34:26.978Z,96.20
2017-08-31T04:36:55.907Z,95.70
2017-08-31T04:39:25.026Z,95.40
2017-08-31T04:41:54.080Z,95.70
2017-08-31T04:44:23.112Z,95.80
2017-08-31T04:46:52.073Z,95.90
2017-08-31T04:49:21.805Z,95.90
2017-08-31T04:51:50.786Z,95.90
2017-08-31T04:54:19.753Z,96.40
2017-08-31T04:56:48.713Z,96.10
2017-08-31T04:59:17.691Z,96.20
2017-08-31T05:01:46.671Z,96.90
2017-08-31T05:04:15.626Z,96.30
2017-08-31T05:06:44.606Z,96.40
2017-08-31T05:09:13.549Z,95.90
2017-08-31T05:11:42.528Z,96.30
2017-08-31T05:14:11.517Z,96.10
2017-08-31T05:16:40.481Z,96.60
2017-08-31T05:19:09.443Z,96.30
2017-08-31T05:21:38.468Z,96.00
2017-08-31T05:24:07.392Z,96.30
2017-08-31T05:26:36.365Z,96.00
2017-08-31T05:29:05.325Z,95.90
2017-08-31T05:31:34.301Z,95.30
2017-08-31T05:34:03.245Z,95.60
2017-08-31T05:36:32.262Z,95.20
2017-08-31T05:39:01.230Z,95.20
2017-08-31T05:41:30.200Z,94.70
2017-08-31T05:43:59.922Z,95.40
2017-08-31T05:46:29.652Z,94.60
2017-08-31T05:48:58.606Z,94.60
2017-08-31T05:51:28.358Z,95.20
2017-08-31T05:53:57.316Z,95.10
2017-08-31T05:56:26.285Z,94.40
2017-08-31T05:58:55.238Z,94.80
2017-08-31T06:01:24.219Z,94.70
2017-08-31T06:03:53.172Z,95.00
2017-08-31T06:06:23.013Z,94.40
2017-08-31T06:08:51.980Z,93.80
2017-08-31T06:11:20.920Z,94.50
2017-08-31T06:13:50.039Z,94.20
2017-08-31T06:16:19.322Z,94.50
2017-08-31T06:18:49.262Z,94.50
2017-08-31T06:21:18.413Z,94.70
2017-08-31T06:23:47.407Z,94.40
2017-08-31T06:26:16.381Z,94.90
2017-08-31T06:28:45.430Z,95.00
2017-08-31T06:31:14.426Z,94.70
2017-08-31T06:33:43.431Z,94.60
2017-08-31T06:36:12.407Z,94.60
2017-08-31T06:38:41.827Z,94.70
2017-08-31T06:41:11.649Z,94.10
2017-08-31T06:43:40.737Z,94.10
2017-08-31T06:46:09.743Z,94.10
2017-08-31T06:48:38.811Z,94.20
2017-08-31T06:51:08.655Z,94.50
2017-08-31T06:53:38.790Z,94.20
2017-08-31T06:56:09.389Z,93.60
2017-08-31T06:58:38.403Z,94.20
2017-08-31T07:01:07.382Z,93.50
2017-08-31T07:03:37.264Z,93.70
2017-08-31T07:06:06.241Z,94.20
2017-08-31T07:08:35.840Z,94.20
2017-08-31T07:11:04.841Z,94.50
2017-08-31T07:13:33.930Z,95.10
2017-08-31T07:16:02.952Z,95.20
2017-08-31T07:18:31.999Z,95.00
2017-08-31T07:21:01.866Z,95.20
2017-08-31T07:23:30.849Z,94.90
2017-08-31T07:25:59.833Z,96.10
2017-08-31T07:28:28.838Z,94.90
2017-08-31T07:30:57.780Z,94.90
2017-08-31T07:33:26.773Z,95.00
2017-08-31T07:35:55.759Z,95.30
2017-08-31T07:38:24.737Z,94.90
2017-08-31T07:40:54.217Z,95.30
2017-08-31T07:43:25.877Z,95.00
2017-08-31T07:45:54.829Z,95.50
2017-08-31T07:48:23.809Z,95.40
2017-08-31T07:50:52.777Z,96.00
2017-08-31T07:53:21.754Z,95.90
2017-08-31T07:55:50.722Z,95.10
2017-08-31T07:58:20.416Z,95.70
2017-08-31T08:00:49.376Z,95.60
2017-08-31T08:03:18.366Z,95.40
2017-08-31T08:05:47.330Z,95.40
2017-08-31T08:08:17.234Z,95.00
2017-08-31T08:10:46.955Z,95.20
2017-08-31T08:13:15.941Z,95.20
2017-08-31T08:15:44.894Z,95.30
2017-08-31T08:18:13.878Z,95.40
2017-08-31T08:20:42.873Z,95.40
2017-08-31T08:23:11.836Z,94.90
2017-08-31T08:25:40.804Z,94.50
2017-08-31T08:28:10.524Z,94.20
2017-08-31T08:30:39.492Z,94.20
2017-08-31T08:33:08.458Z,94.60
2017-08-31T08:35:37.419Z,94.50
2017-08-31T08:38:06.388Z,95.30
2017-08-31T08:40:35.363Z,95.10
2017-08-31T08:43:04.334Z,94.10
2017-08-31T08:45:33.299Z,94.30
2017-08-31T08:48:02.277Z,95.00
2017-08-31T08:50:31.260Z,95.30
2017-08-31T08:53:00.233Z,94.50
2017-08-31T08:55:29.210Z,94.90
2017-08-31T08:57:58.152Z,95.20
2017-08-31T09:00:27.108Z,96.00
2017-08-31T09:02:56.082Z,94.80
2017-08-31T09:05:25.016Z,94.20
2017-08-31T09:07:53.990Z,94.50
2017-08-31T09:10:22.950Z,94.50
2017-08-31T09:12:52.029Z,94.70
2017-08-31T09:15:20.990Z,94.30
2017-08-31T09:17:49.946Z,93.80
2017-08-31T09:20:18.920Z,94.30
2017-08-31T09:22:47.887Z,93.90
2017-08-31T09:25:16.856Z,94.00
2017-08-31T09:27:45.882Z,94.40
2017-08-31T09:30:14.833Z,94.30
2017-08-31T09:32:43.832Z,94.10
2017-08-31T09:35:12.804Z,93.90
2017-08-31T09:37:41.799Z,94.50
2017-08-31T09:40:10.757Z,94.30
2017-08-31T09:42:39.742Z,93.90
2017-08-31T09:45:08.768Z,93.30
2017-08-31T09:47:38.588Z,93.50
2017-08-31T09:50:07.610Z,93.40
2017-08-31T09:52:36.618Z,93.80
2017-08-31T09:55:05.572Z,94.10
2017-08-31T09:57:34.563Z,93.90
2017-08-31T10:00:03.513Z,93.70
2017-08-31T10:02:32.490Z,94.60
2017-08-31T10:05:01.437Z,93.30
2017-08-31T10:07:30.423Z,93.10
2017-08-31T10:09:59.397Z,92.60
2017-08-31T10:12:28.377Z,93.20
2017-08-31T10:14:57.328Z,93.30
2017-08-31T10:17:26.310Z,92.50
2017-08-31T10:19:55.353Z,92.20
2017-08-31T10:22:24.319Z,91.60
2017-08-31T10:24:53.327Z,91.70
2017-08-31T10:27:22.296Z,91.40
2017-08-31T10:29:51.284Z,91.20
2017-08-31T10:32:20.267Z,91.10
2017-08-31T10:34:49.246Z,91.10
2017-08-31T10:37:18.245Z,90.00
2017-08-31T10:39:47.300Z,89.90
2017-08-31T10:42:16.263Z,90.00
2017-08-31T10:44:45.214Z,85.70
2017-08-31T10:47:14.188Z,85.50
2017-08-31T10:49:43.153Z,86.60
2017-08-31T10:52:12.140Z,82.50
2017-08-31T10:54:41.091Z,83.00
2017-08-31T10:57:10.074Z,83.70
2017-08-31T10:59:39.062Z,84.00
2017-08-31T11:02:08.019Z,84.70
2017-08-31T11:04:37.009Z,80.50
2017-08-31T11:07:05.955Z,78.00
2017-08-31T11:09:35.104Z,76.00
2017-08-31T11:12:04.820Z,74.50
2017-08-31T11:14:33.808Z,74.50
2017-08-31T11:17:02.796Z,75.40
2017-08-31T11:19:31.750Z,76.60
2017-08-31T11:22:00.718Z,74.70
2017-08-31T11:24:29.680Z,72.80
2017-08-31T11:26:58.666Z,76.10
2017-08-31T11:29:27.697Z,77.90
2017-08-31T11:31:56.705Z,78.50
2017-08-31T11:34:25.657Z,77.70
2017-08-31T11:36:54.720Z,76.20
2017-08-31T11:39:23.571Z,77.70
2017-08-31T11:41:52.552Z,79.30
2017-08-31T11:44:21.616Z,79.40
2017-08-31T11:46:50.580Z,77.80
2017-08-31T11:49:19.539Z,75.20
2017-08-31T11:51:48.535Z,71.20
2017-08-31T11:54:17.502Z,73.50
2017-08-31T11:56:46.476Z,74.50
2017-08-31T11:59:15.468Z,77.30
2017-08-31T12:01:44.459Z,78.40
2017-08-31T12:04:13.425Z,80.00
2017-08-31T12:06:42.435Z,79.70
2017-08-31T12:09:11.390Z,76.70
2017-08-31T12:11:40.352Z,77.90
2017-08-31T12:14:09.305Z,78.50
2017-08-31T12:16:38.396Z,77.40
2017-08-31T12:19:08.254Z,78.00
2017-08-31T12:21:37.330Z,76.90
2017-08-31T12:24:06.303Z,72.80
2017-08-31T12:26:35.223Z,69.10
2017-08-31T12:29:04.213Z,68.30
2017-08-31T12:31:33.197Z,68.00
2017-08-31T12:34:02.168Z,64.70
2017-08-31T12:36:31.120Z,64.50
2017-08-31T12:39:00.176Z,67.80
2017-08-31T12:41:29.389Z,68.00
2017-08-31T12:43:58.353Z,70.70
2017-08-31T12:46:27.321Z,72.70
2017-08-31T12:48:56.265Z,73.50
2017-08-31T12:51:26.104Z,79.30
2017-08-31T12:53:55.051Z,78.60
2017-08-31T12:56:24.032Z,81.70
2017-08-31T12:58:52.993Z,82.00
2017-08-31T13:01:21.980Z,81.10
2017-08-31T13:03:50.935Z,81.80
2017-08-31T13:06:19.918Z,82.00
2017-08-31T13:08:48.863Z,81.30
2017-08-31T13:11:17.809Z,79.60
2017-08-31T13:13:46.785Z,79.10
2017-08-31T13:16:15.734Z,79.70
2017-08-31T13:18:44.774Z,77.30
2017-08-31T13:21:13.750Z,77.40
2017-08-31T13:23:42.704Z,78.30
2017-08-31T13:26:11.682Z,73.50
2017-08-31T13:28:40.649Z,72.30
2017-08-31T13:31:09.650Z,68.60
2017-08-31T13:33:38.751Z,63.70
2017-08-31T13:36:07.718Z,64.30
2017-08-31T13:38:36.697Z,67.10
2017-08-31T13:41:06.516Z,66.20
2017-08-31T13:43:35.492Z,68.10
2017-08-31T13:46:04.444Z,73.40
2017-08-31T13:48:33.473Z,72.70
2017-08-31T13:51:02.416Z,68.90
2017-08-31T13:53:31.561Z,67.00
2017-08-31T13:56:00.492Z,67.80
2017-08-31T13:58:29.439Z,70.30
2017-08-31T14:00:58.545Z,70.30
2017-08-31T14:03:27.475Z,70.00
2017-08-31T14:05:56.457Z,72.70
2017-08-31T14:08:25.434Z,73.10
2017-08-31T14:10:54.397Z,74.20
2017-08-31T14:13:23.400Z,73.30
2017-08-31T14:15:52.372Z,66.50
2017-08-31T14:18:21.371Z,57.60
2017-08-31T14:20:50.304Z,54.30
2017-08-31T14:23:19.260Z,53.40
2017-08-31T14:25:48.240Z,53.20
2017-08-31T14:28:17.186Z,53.80
2017-08-31T14:30:46.166Z,54.50
2017-08-31T14:33:15.113Z,54.50
2017-08-31T14:35:44.092Z,55.90
2017-08-31T14:38:13.095Z,54.90
2017-08-31T14:40:42.046Z,55.60
2017-08-31T14:43:10.997Z,56.30
2017-08-31T14:45:39.974Z,53.80
2017-08-31T14:48:08.976Z,54.20
2017-08-31T14:50:37.952Z,57.10
2017-08-31T14:53:06.909Z,57.20
2017-08-31T14:55:35.873Z,56.60
2017-08-31T14:58:04.821Z,57.10
2017-08-31T15:00:33.797Z,56.10
2017-08-31T15:03:02.767Z,55.70
2017-08-31T15:05:31.722Z,59.80
2017-08-31T15:08:00.747Z,57.90
2017-08-31T15:10:29.704Z,57.40
2017-08-31T15:12:58.666Z,58.90
2017-08-31T15:15:27.641Z,58.00
2017-08-31T15:17:56.607Z,59.30
2017-08-31T15:20:25.586Z,60.50
2017-08-31T15:22:55.317Z,65.00
2017-08-31T15:25:24.285Z,64.80
2017-08-31T15:27:53.819Z,64.60
2017-08-31T15:30:22.792Z,66.60
2017-08-31T15:32:51.729Z,63.70
2017-08-31T15:35:20.714Z,63.40
2017-08-31T15:37:49.705Z,61.90
2017-08-31T15:40:18.688Z,59.90
2017-08-31T15:42:47.647Z,58.90
2017-08-31T15:45:16.639Z,59.00
2017-08-31T15:47:45.587Z,57.90
2017-08-31T15:50:14.607Z,55.10
2017-08-31T15:52:43.555Z,54.40
2017-08-31T15:55:12.593Z,54.90
2017-08-31T15:57:41.550Z,56.20
2017-08-31T16:00:10.518Z,54.70
2017-08-31T16:02:39.485Z,55.80
2017-08-31T16:05:08.440Z,58.70
2017-08-31T16:07:37.654Z,55.10
2017-08-31T16:10:06.640Z,55.90
2017-08-31T16:12:35.582Z,56.50
2017-08-31T16:15:04.568Z,55.90
2017-08-31T16:17:33.545Z,55.90
2017-08-31T16:20:03.250Z,58.50
2017-08-31T16:22:32.238Z,58.50
2017-08-31T16:25:01.191Z,56.20
2017-08-31T16:27:30.193Z,58.30
2017-08-31T16:29:59.203Z,57.20
2017-08-31T16:32:28.168Z,56.30
2017-08-31T16:34:57.215Z,56.40
2017-08-31T16:37:26.179Z,55.70
2017-08-31T16:39:55.108Z,55.80
2017-08-31T16:42:24.086Z,55.10
2017-08-31T16:44:53.079Z,56.10
2017-08-31T16:47:22.086Z,57.60
2017-08-31T16:49:51.043Z,56.90
2017-08-31T16:52:20.359Z,56.00
2017-08-31T16:54:49.342Z,57.00
2017-08-31T16:57:19.096Z,57.10
2017-08-31T16:59:48.038Z,57.20
2017-08-31T17:02:17.030Z,58.10
2017-08-31T17:04:45.978Z,58.90
2017-08-31T17:07:15.198Z,60.30
2017-08-31T17:09:44.143Z,60.00
2017-08-31T17:12:13.130Z,60.40
2017-08-31T17:14:42.120Z,60.90
2017-08-31T17:17:11.069Z,65.00
2017-08-31T17:19:40.046Z,66.40
2017-08-31T17:22:09.006Z,64.40
2017-08-31T17:24:37.993Z,63.50
2017-08-31T17:27:06.972Z,67.20
2017-08-31T17:29:35.896Z,66.80
2017-08-31T17:32:04.855Z,66.70
2017-08-31T17:34:33.843Z,68.70
2017-08-31T17:37:02.826Z,66.00
2017-08-31T17:39:31.807Z,69.40
2017-08-31T17:42:00.879Z,66.20
2017-08-31T17:44:29.831Z,68.10
2017-08-31T17:46:58.786Z,70.60
2017-08-31T17:49:28.484Z,71.90
2017-08-31T17:51:57.479Z,71.90
2017-08-31T17:54:26.436Z,72.40
2017-08-31T17:56:55.414Z,73.10
2017-08-31T17:59:24.497Z,73.20
2017-08-31T18:01:53.451Z,73.80
2017-08-31T18:04:22.544Z,75.10
2017-08-31T18:06:51.481Z,75.90
2017-08-31T18:09:20.497Z,75.00
2017-08-31T18:11:49.453Z,75.50
2017-08-31T18:14:18.450Z,76.30
2017-08-31T18:16:47.435Z,75.80
2017-08-31T18:19:16.420Z,76.60
2017-08-31T18:21:45.381Z,78.50
2017-08-31T18:24:14.375Z,78.50
2017-08-31T18:26:43.446Z,77.90
2017-08-31T18:29:12.464Z,79.80
2017-08-31T18:31:41.424Z,79.90
2017-08-31T18:34:10.439Z,80.40
2017-08-31T18:36:39.440Z,80.50
2017-08-31T18:39:08.422Z,80.70
2017-08-31T18:41:37.399Z,80.10
2017-08-31T18:44:06.458Z,80.40
2017-08-31T18:46:35.443Z,81.40
2017-08-31T18:49:04.485Z,80.60
2017-08-31T18:51:33.453Z,81.20
2017-08-31T18:54:02.459Z,81.40
2017-08-31T18:56:31.403Z,82.00
2017-08-31T18:59:00.375Z,82.10
2017-08-31T19:01:29.338Z,82.70
2017-08-31T19:03:58.323Z,82.90
2017-08-31T19:06:27.298Z,84.00
2017-08-31T19:08:56.285Z,83.50
2017-08-31T19:11:25.287Z,84.00
2017-08-31T19:13:54.273Z,84.00
2017-08-31T19:16:23.280Z,83.60
2017-08-31T19:18:53.807Z,84.10
2017-08-31T19:21:22.768Z,83.70
2017-08-31T19:23:51.774Z,83.80
2017-08-31T19:26:20.742Z,85.30
2017-08-31T19:28:49.849Z,84.50
2017-08-31T19:31:18.829Z,84.90
2017-08-31T19:33:47.961Z,85.70
2017-08-31T19:36:16.936Z,87.00
2017-08-31T19:38:45.913Z,86.20
2017-08-31T19:41:14.916Z,86.80
2017-08-31T19:43:43.888Z,87.20
2017-08-31T19:46:13.682Z,86.70
2017-08-31T19:48:42.677Z,86.70
2017-08-31T19:51:11.646Z,86.20
2017-08-31T19:53:40.633Z,85.80
2017-08-31T19:56:09.702Z,85.70
2017-08-31T19:58:38.712Z,86.20
2017-08-31T20:01:07.730Z,87.10
2017-08-31T20:03:36.712Z,86.40
2017-08-31T20:06:05.686Z,87.30
2017-08-31T20:08:34.667Z,88.30
2017-08-31T20:11:03.618Z,88.60
2017-08-31T20:13:33.356Z,87.20
2017-08-31T20:16:02.308Z,87.10
2017-08-31T20:18:31.344Z,89.30
2017-08-31T20:21:00.306Z,89.30
2017-08-31T20:23:29.327Z,88.90
2017-08-31T20:25:58.320Z,88.00
2017-08-31T20:28:27.297Z,88.60
2017-08-31T20:30:56.246Z,89.10
2017-08-31T20:33:25.224Z,89.40
2017-08-31T20:35:54.183Z,89.90
2017-08-31T20:38:23.157Z,90.10
2017-08-31T20:40:52.104Z,90.10
2017-08-31T20:43:21.088Z,90.20
2017-08-31T20:45:50.042Z,90.20
2017-08-31T20:48:20.098Z,89.80
2017-08-31T20:50:49.062Z,89.90
2017-08-31T20:53:18.037Z,90.20
2017-08-31T20:55:47.020Z,90.00
2017-08-31T20:58:15.979Z,89.70
2017-08-31T21:00:44.947Z,90.10
2017-08-31T21:03:13.992Z,90.20
2017-08-31T21:05:43.091Z,90.10
2017-08-31T21:08:12.033Z,90.20
2017-08-31T21:10:40.985Z,89.70
2017-08-31T21:13:09.972Z,90.00
2017-08-31T21:15:38.916Z,90.20
2017-08-31T21:18:07.890Z,90.20
2017-08-31T21:20:36.830Z,90.30
2017-08-31T21:23:05.787Z,90.30
2017-08-31T21:25:34.830Z,90.40
2017-08-31T21:28:03.907Z,90.40
2017-08-31T21:30:32.904Z,90.50
2017-08-31T21:33:01.885Z,90.30
2017-08-31T21:35:30.852Z,90.20
2017-08-31T21:37:59.819Z,90.10
2017-08-31T21:40:28.789Z,90.30
2017-08-31T21:42:57.738Z,90.30
2017-08-31T21:45:26.715Z,90.40
2017-08-31T21:47:55.674Z,90.30
2017-08-31T21:50:24.678Z,90.20
2017-08-31T21:52:53.632Z,90.30
2017-08-31T21:55:22.604Z,90.30
2017-08-31T21:57:51.546Z,90.20
2017-08-31T22:00:20.529Z,90.50
2017-08-31T22:02:49.828Z,90.40
2017-08-31T22:05:18.779Z,90.20
2017-08-31T22:07:47.729Z,90.30
2017-08-31T22:10:17.323Z,90.00
2017-08-31T22:12:46.270Z,89.70
2017-08-31T22:15:15.223Z,90.20
2017-08-31T22:17:44.187Z,90.40
2017-08-31T22:20:13.166Z,90.50
2017-08-31T22:22:42.116Z,90.50
2017-08-31T22:25:11.076Z,90.10
2017-08-31T22:27:40.124Z,90.00
2017-08-31T22:30:09.093Z,90.10
2017-08-31T22:32:38.053Z,90.20
2017-08-31T22:35:07.028Z,89.70
2017-08-31T22:37:35.990Z,90.00
2017-08-31T22:40:05.758Z,89.90
2017-08-31T22:42:34.788Z,89.80
2017-08-31T22:45:03.785Z,89.90
2017-08-31T22:47:32.737Z,90.20
2017-08-31T22:50:01.701Z,89.80
2017-08-31T22:52:30.643Z,90.30
2017-08-31T22:55:11.466Z,90.10
2017-08-31T22:57:52.371Z,90.00
2017-08-31T23:00:21.330Z,90.20
2017-08-31T23:02:50.282Z,90.30
2017-08-31T23:05:19.379Z,89.60
2017-08-31T23:07:48.328Z,90.00
2017-08-31T23:10:17.310Z,89.10
2017-08-31T23:12:46.258Z,89.10
2017-08-31T23:15:15.249Z,89.00
2017-08-31T23:17:44.969Z,90.30
2017-08-31T23:20:14.705Z,90.10
2017-08-31T23:22:43.656Z,90.10
2017-08-31T23:25:12.641Z,90.00
2017-08-31T23:27:41.575Z,90.00
2017-08-31T23:30:10.561Z,90.40
2017-08-31T23:32:39.541Z,90.50
2017-08-31T23:35:08.493Z,90.40
2017-08-31T23:37:37.428Z,90.10
2017-08-31T23:40:06.399Z,90.00
2017-08-31T23:42:35.378Z,90.00
2017-08-31T23:45:04.336Z,90.20
2017-08-31T23:47:33.338Z,89.50
2017-08-31T23:50:02.462Z,89.60
2017-08-31T23:52:31.497Z,89.60
2017-08-31T23:55:00.490Z,90.00
2017-08-31T23:57:29.459Z,89.70
2017-08-31T23:59:58.406Z,90.00
